Time;durP1;ratioP1;P1;durP2;ratioP2;P2;SDS_P1;SDS_P2;PMS_P1;PMS_P2;Temp;Humidity;BMP_temperature;BMP_pressure;BME280_temperature;BME280_humidity;BME280_pressure;Samples;Min_cycle;Max_cycle;Signal;HPM_P1;HPM_P2
2021/08/22 00:01:25;;;;;;;;;;;;;;;;;;4932631;28;20563;-87
2021/08/22 00:03:51;;;;;;;;;;;;;;;;;;4943477;28;20334;-86
2021/08/22 00:06:17;;;;;;;;;;;;;;;;;;4935171;28;19929;-84
2021/08/22 00:08:43;;;;;;;;;;;;;;;;;;4930038;28;20022;-85
2021/08/22 00:11:12;;;;;;;;;;;;;;;;;;4947311;28;20385;-86
2021/08/22 00:13:38;;;;;;;;;;;;;;;;;;4941795;28;19925;-85
2021/08/22 00:16:04;;;;;;;;;;;;;;;;;;4930481;28;19945;-84
2021/08/22 00:18:30;;;;;;;;;;;;;;;;;;4929568;28;20386;-86
2021/08/22 00:20:56;;;;;;;;;;;;;;;;;;4930581;28;19918;-86
2021/08/22 00:23:22;;;;;;;;;;;;;;;;;;4929530;28;19926;-83
2021/08/22 00:25:48;;;;;;;;;;;;;;;;;;4926749;28;20519;-85
2021/08/22 00:28:14;;;;;;;;;;;;;;;;;;4947144;28;19929;-85
2021/08/22 00:30:40;;;;;;;;;;;;;;;;;;4926297;28;19918;-84
2021/08/22 00:33:09;;;;;;;;;;;;;;;;;;4941721;28;19925;-85
2021/08/22 00:35:35;;;;;;;;;;;;;;;;;;4945938;28;20668;-85
2021/08/22 00:38:02;;;;;;;;;;;;;;;;;;4930356;28;19964;-85
2021/08/22 00:40:28;;;;;;;;;;;;;;;;;;4943339;28;20440;-86
2021/08/22 00:42:55;;;;;;;;;;;;;;;;;;4929277;28;19922;-87
2021/08/22 00:45:22;;;;;;;;;;;;;;;;;;4943281;28;19928;-84
2021/08/22 00:47:49;;;;;;;;;;;;;;;;;;4944011;28;19949;-85
2021/08/22 00:50:14;;;;;;;;;;;;;;;;;;4945858;28;19922;-85
2021/08/22 00:52:40;;;;;;;;;;;;;;;;;;4927969;28;19929;-85
2021/08/22 00:55:07;;;;;;;;;;;;;;;;;;4944132;28;19918;-86
2021/08/22 00:57:33;;;;;;;;;;;;;;;;;;4943076;28;19996;-86
2021/08/22 00:59:59;;;;;;;;;;;;;;;;;;4942091;28;19918;-86
2021/08/22 01:02:25;;;;;;;;;;;;;;;;;;4931172;28;20372;-85
2021/08/22 01:04:51;;;;;;;;;;;;;;;;;;4942422;28;19914;-86
2021/08/22 01:07:18;;;;;;;;;;;;;;;;;;4929906;28;20016;-84
2021/08/22 01:09:44;;;;;;;;;;;;;;;;;;4942077;28;20288;-85
2021/08/22 01:12:10;;;;;;;;;;;;;;;;;;4943759;28;20727;-85
2021/08/22 01:14:36;;;;;;;;;;;;;;;;;;4944736;28;19922;-85
2021/08/22 01:17:02;;;;;;;;;;;;;;;;;;4940131;28;19925;-85
2021/08/22 01:19:28;;;;;;;;;;;;;;;;;;4943014;28;19929;-84
2021/08/22 01:21:54;;;;;;;;;;;;;;;;;;4935359;28;19918;-85
2021/08/22 01:24:21;;;;;;;;;;;;;;;;;;4959925;28;19949;-86
2021/08/22 01:26:48;;;;;;;;;;;;;;;;;;4935439;28;20009;-85
2021/08/22 01:29:16;;;;;;;;;;;;;;;;;;4971244;28;19937;-85
2021/08/22 01:31:51;;;;;;;;;;;;;;;;;;4971688;28;19914;-86
2021/08/22 01:34:18;;;;;;;;;;;;;;;;;;4959028;28;20814;-86
2021/08/22 01:36:45;;;;;;;;;;;;;;;;;;4951189;28;20321;-86
2021/08/22 01:39:12;;;;;;;;;;;;;;;;;;4950835;28;20013;-86
2021/08/22 01:41:38;;;;;;;;;;;;;;;;;;4930985;28;19922;-85
2021/08/22 01:44:05;;;;;;;;;;;;;;;;;;4949127;28;19953;-86
2021/08/22 01:46:32;;;;;;;;;;;;;;;;;;4945704;28;19999;-86
2021/08/22 01:48:58;;;;;;;;;;;;;;;;;;4935900;28;19922;-86
2021/08/22 01:51:24;;;;;;;;;;;;;;;;;;4931732;28;19918;-85
2021/08/22 01:53:51;;;;;;;;;;;;;;;;;;4933139;28;20008;-86
2021/08/22 01:56:18;;;;;;;;;;;;;;;;;;4937268;28;19918;-85
2021/08/22 01:58:44;;;;;;;;;;;;;;;;;;4947492;28;19922;-85
2021/08/22 02:01:10;;;;;;;;;;;;;;;;;;4952269;28;19964;-86
2021/08/22 02:03:36;;;;;;;;;;;;;;;;;;4927091;28;20625;-86
2021/08/22 02:06:03;;;;;;;;;;;;;;;;;;4934129;28;19925;-86
2021/08/22 02:08:31;;;;;;;;;;;;;;;;;;4943815;28;19918;-85
2021/08/22 02:10:57;;;;;;;;;;;;;;;;;;4931812;28;19918;-84
2021/08/22 02:13:24;;;;;;;;;;;;;;;;;;4946103;28;19918;-84
2021/08/22 02:15:51;;;;;;;;;;;;;;;;;;4927487;28;19926;-84
2021/08/22 02:18:18;;;;;;;;;;;;;;;;;;4946870;28;20258;-84
2021/08/22 02:20:45;;;;;;;;;;;;;;;;;;4944436;28;19918;-83
2021/08/22 02:23:11;;;;;;;;;;;;;;;;;;4947281;28;19926;-84
2021/08/22 02:25:38;;;;;;;;;;;;;;;;;;4941527;28;19946;-84
2021/08/22 02:28:04;;;;;;;;;;;;;;;;;;4905346;29;19926;-84
2021/08/22 02:30:30;;;;;;;;;;;;;;;;;;4902039;29;19918;-84
2021/08/22 02:32:57;;;;;;;;;;;;;;;;;;4895610;29;19921;-84
2021/08/22 02:35:23;;;;;;;;;;;;;;;;;;4906385;29;19933;-84
2021/08/22 02:37:49;;;;;;;;;;;;;;;;;;4902202;28;19922;-84
2021/08/22 02:40:18;;;;;;;;;;;;;;;;;;4905195;29;19924;-84
2021/08/22 02:42:44;;;;;;;;;;;;;;;;;;4905815;29;19933;-85
2021/08/22 02:45:10;;;;;;;;;;;;;;;;;;4905051;29;19919;-84
2021/08/22 02:47:36;;;;;;;;;;;;;;;;;;4887135;29;19929;-84
2021/08/22 02:50:02;;;;;;;;;;;;;;;;;;4901147;29;20633;-83
2021/08/22 02:52:29;;;;;;;;;;;;;;;;;;4905564;29;20285;-84
2021/08/22 02:54:55;;;;;;;;;;;;;;;;;;4908972;29;19926;-84
2021/08/22 02:57:21;;;;;;;;;;;;;;;;;;4906760;29;19938;-84
2021/08/22 02:59:47;;;;;;;;;;;;;;;;;;4903914;28;22729;-84
2021/08/22 03:02:13;;;;;;;;;;;;;;;;;;4886062;29;19938;-84
2021/08/22 03:04:40;;;;;;;;;;;;;;;;;;4887806;29;19923;-84
2021/08/22 03:07:06;;;;;;;;;;;;;;;;;;4906096;29;19962;-84
2021/08/22 03:09:34;;;;;;;;;;;;;;;;;;4902997;29;19919;-84
2021/08/22 03:12:09;;;;;;;;;;;;;;;;;;4902826;29;19926;-84
2021/08/22 03:14:36;;;;;;;;;;;;;;;;;;4888538;29;19922;-84
2021/08/22 03:17:02;;;;;;;;;;;;;;;;;;4893642;29;19961;-84
2021/08/22 03:19:28;;;;;;;;;;;;;;;;;;4937084;28;19922;-83
2021/08/22 03:21:54;;;;;;;;;;;;;;;;;;4946516;28;19925;-83
2021/08/22 03:24:20;;;;;;;;;;;;;;;;;;4941977;28;19930;-83
2021/08/22 03:26:46;;;;;;;;;;;;;;;;;;4927567;28;19922;-83
2021/08/22 03:29:13;;;;;;;;;;;;;;;;;;4941206;28;19925;-84
2021/08/22 03:31:40;;;;;;;;;;;;;;;;;;4927108;28;19918;-83
2021/08/22 03:34:06;;;;;;;;;;;;;;;;;;4943156;28;20004;-84
2021/08/22 03:36:37;;;;;;;;;;;;;;;;;;4938633;28;19918;-83
2021/08/22 03:39:03;;;;;;;;;;;;;;;;;;4926883;28;19918;-83
2021/08/22 03:41:29;;;;;;;;;;;;;;;;;;4941592;28;19929;-84
2021/08/22 03:43:55;;;;;;;;;;;;;;;;;;4927963;28;19926;-83
2021/08/22 03:46:21;;;;;;;;;;;;;;;;;;4931630;28;20273;-84
2021/08/22 03:48:48;;;;;;;;;;;;;;;;;;4941335;28;21133;-84
2021/08/22 03:51:14;;;;;;;;;;;;;;;;;;4926788;28;20492;-85
2021/08/22 03:53:41;;;;;;;;;;;;;;;;;;4924025;28;20013;-83
2021/08/22 03:56:07;;;;;;;;;;;;;;;;;;4929921;28;19922;-83
2021/08/22 03:58:35;;;;;;;;;;;;;;;;;;4926540;28;19976;-83
2021/08/22 04:01:01;;;;;;;;;;;;;;;;;;4944093;28;19922;-82
2021/08/22 04:03:28;;;;;;;;;;;;;;;;;;4927638;28;20653;-81
2021/08/22 04:05:56;;;;;;;;;;;;;;;;;;4945660;28;19925;-83
2021/08/22 04:08:25;;;;;;;;;;;;;;;;;;4947104;28;19918;-83
2021/08/22 04:10:51;;;;;;;;;;;;;;;;;;4931044;28;19922;-83
2021/08/22 04:13:17;;;;;;;;;;;;;;;;;;4964599;28;19925;-84
2021/08/22 04:15:43;;;;;;;;;;;;;;;;;;4948607;28;19926;-84
2021/08/22 04:18:11;;;;;;;;;;;;;;;;;;4944623;28;20424;-84
2021/08/22 04:20:37;;;;;;;;;;;;;;;;;;4947676;28;19922;-84
2021/08/22 04:23:03;;;;;;;;;;;;;;;;;;4933057;28;19923;-83
2021/08/22 04:25:29;;;;;;;;;;;;;;;;;;4944187;28;20485;-84
2021/08/22 04:27:56;;;;;;;;;;;;;;;;;;4928984;28;20025;-84
2021/08/22 04:30:23;;;;;;;;;;;;;;;;;;4951347;28;19922;-84
2021/08/22 04:32:49;;;;;;;;;;;;;;;;;;4926047;28;19922;-83
2021/08/22 04:35:15;;;;;;;;;;;;;;;;;;4932661;28;20714;-83
2021/08/22 04:37:42;;;;;;;;;;;;;;;;;;4932838;28;19973;-84
2021/08/22 04:40:09;;;;;;;;;;;;;;;;;;4938193;28;19922;-84
2021/08/22 04:42:35;;;;;;;;;;;;;;;;;;4941535;28;19988;-84
2021/08/22 04:45:01;;;;;;;;;;;;;;;;;;4930889;28;19930;-84
2021/08/22 04:47:28;;;;;;;;;;;;;;;;;;4942073;28;19933;-85
2021/08/22 04:49:55;;;;;;;;;;;;;;;;;;4945511;28;19922;-83
2021/08/22 04:52:21;;;;;;;;;;;;;;;;;;4954146;28;19929;-84
2021/08/22 04:54:47;;;;;;;;;;;;;;;;;;4937102;28;21474;-81
2021/08/22 04:57:13;;;;;;;;;;;;;;;;;;4941295;28;20755;-81
2021/08/22 04:59:39;;;;;;;;;;;;;;;;;;4923602;28;20053;-80
2021/08/22 05:02:05;;;;;;;;;;;;;;;;;;4945564;28;19914;-80
2021/08/22 05:04:31;;;;;;;;;;;;;;;;;;4923720;28;19997;-80
2021/08/22 05:07:00;;;;;;;;;;;;;;;;;;4944452;28;19985;-82
2021/08/22 05:09:26;;;;;;;;;;;;;;;;;;4938149;28;19922;-80
2021/08/22 05:11:52;;;;;;;;;;;;;;;;;;4923601;28;19919;-80
2021/08/22 05:14:19;;;;;;;;;;;;;;;;;;4927732;28;20013;-81
2021/08/22 05:16:45;;;;;;;;;;;;;;;;;;4936948;28;20689;-80
2021/08/22 05:19:11;;;;;;;;;;;;;;;;;;4938813;28;20240;-81
2021/08/22 05:21:37;;;;;;;;;;;;;;;;;;4919644;28;19957;-80
2021/08/22 05:24:03;;;;;;;;;;;;;;;;;;4927345;28;19922;-81
2021/08/22 05:26:29;;;;;;;;;;;;;;;;;;4919518;28;19933;-81
2021/08/22 05:28:55;;;;;;;;;;;;;;;;;;4944148;28;19917;-81
2021/08/22 05:31:21;;;;;;;;;;;;;;;;;;4937389;28;20369;-81
2021/08/22 05:33:47;;;;;;;;;;;;;;;;;;4926934;28;19985;-80
2021/08/22 05:36:13;;;;;;;;;;;;;;;;;;4923972;28;19918;-80
2021/08/22 05:38:42;;;;;;;;;;;;;;;;;;4938330;28;19923;-81
2021/08/22 05:41:09;;;;;;;;;;;;;;;;;;4938693;28;19972;-80
2021/08/22 05:43:35;;;;;;;;;;;;;;;;;;4920619;28;20366;-81
2021/08/22 05:46:02;;;;;;;;;;;;;;;;;;4924960;28;19919;-80
2021/08/22 05:48:30;;;;;;;;;;;;;;;;;;4923095;28;19922;-80
2021/08/22 05:50:56;;;;;;;;;;;;;;;;;;4926383;28;20286;-79
2021/08/22 05:53:22;;;;;;;;;;;;;;;;;;4922548;28;19961;-80
2021/08/22 05:55:48;;;;;;;;;;;;;;;;;;4921167;28;19922;-80
2021/08/22 05:58:16;;;;;;;;;;;;;;;;;;4921008;28;20399;-80
2021/08/22 06:00:42;;;;;;;;;;;;;;;;;;4922766;28;24109;-81
2021/08/22 06:03:08;;;;;;;;;;;;;;;;;;4921857;28;19929;-81
2021/08/22 06:05:35;;;;;;;;;;;;;;;;;;4925372;28;19918;-80
2021/08/22 06:08:01;;;;;;;;;;;;;;;;;;4925412;28;20058;-80
2021/08/22 06:10:27;;;;;;;;;;;;;;;;;;4926131;28;20021;-80
2021/08/22 06:12:53;;;;;;;;;;;;;;;;;;4926334;28;19962;-82
2021/08/22 06:15:19;;;;;;;;;;;;;;;;;;4930337;28;19918;-81
2021/08/22 06:17:45;;;;;;;;;;;;;;;;;;4930608;28;19910;-81
2021/08/22 06:20:12;;;;;;;;;;;;;;;;;;4948920;28;20238;-81
2021/08/22 06:22:38;;;;;;;;;;;;;;;;;;4937624;28;19918;-80
2021/08/22 06:25:04;;;;;;;;;;;;;;;;;;4931896;28;19926;-80
2021/08/22 06:27:30;;;;;;;;;;;;;;;;;;4925927;28;19928;-81
2021/08/22 06:29:56;;;;;;;;;;;;;;;;;;4928557;28;20283;-79
2021/08/22 06:32:22;;;;;;;;;;;;;;;;;;4928082;28;19926;-79
2021/08/22 06:34:48;;;;;;;;;;;;;;;;;;4925254;28;19926;-80
2021/08/22 06:37:14;;;;;;;;;;;;;;;;;;4926576;28;20455;-81
2021/08/22 06:39:41;;;;;;;;;;;;;;;;;;4924353;28;19918;-81
2021/08/22 06:42:08;;;;;;;;;;;;;;;;;;4925154;28;19922;-81
2021/08/22 06:44:34;;;;;;;;;;;;;;;;;;4935381;28;19933;-81
2021/08/22 06:47:02;;;;;;;;;;;;;;;;;;4945919;28;20381;-80
2021/08/22 06:49:29;;;;;;;;;;;;;;;;;;4941755;28;19965;-80
2021/08/22 06:51:55;;;;;;;;;;;;;;;;;;4944643;28;20020;-80
2021/08/22 06:54:21;;;;;;;;;;;;;;;;;;4942340;28;19922;-81
2021/08/22 06:56:47;;;;;;;;;;;;;;;;;;4927718;28;19922;-81
2021/08/22 06:59:13;;;;;;;;;;;;;;;;;;4930640;28;20552;-81
2021/08/22 07:01:39;;;;;;;;;;;;;;;;;;4940074;28;19922;-80
2021/08/22 07:04:05;;;;;;;;;;;;;;;;;;4929493;28;19971;-79
2021/08/22 07:06:31;;;;;;;;;;;;;;;;;;4925212;28;19922;-81
2021/08/22 07:08:57;;;;;;;;;;;;;;;;;;4943928;28;19918;-80
2021/08/22 07:11:23;;;;;;;;;;;;;;;;;;4928569;28;20282;-81
2021/08/22 07:13:51;;;;;;;;;;;;;;;;;;4938920;28;19929;-80
2021/08/22 07:16:17;;;;;;;;;;;;;;;;;;4930540;28;19918;-80
2021/08/22 07:18:44;;;;;;;;;;;;;;;;;;4924938;28;19918;-81
2021/08/22 07:21:11;;;;;;;;;;;;;;;;;;4928032;28;19918;-80
2021/08/22 07:23:37;;;;;;;;;;;;;;;;;;4940892;28;19921;-80
2021/08/22 07:26:03;;;;;;;;;;;;;;;;;;4927357;28;20392;-80
2021/08/22 07:28:29;;;;;;;;;;;;;;;;;;4925295;28;19924;-80
2021/08/22 07:30:55;;;;;;;;;;;;;;;;;;4927375;28;19918;-81
2021/08/22 07:33:23;;;;;;;;;;;;;;;;;;4945948;28;20397;-81
2021/08/22 07:35:49;;;;;;;;;;;;;;;;;;4921620;28;20589;-81
2021/08/22 07:38:15;;;;;;;;;;;;;;;;;;4946243;28;19918;-80
2021/08/22 07:40:41;;;;;;;;;;;;;;;;;;4936134;28;19933;-86
2021/08/22 07:43:07;;;;;;;;;;;;;;;;;;4928798;28;19926;-91
2021/08/22 07:45:33;;;;;;;;;;;;;;;;;;4945061;28;19918;-85
2021/08/22 07:48:00;;;;;;;;;;;;;;;;;;4941524;28;20336;-86
2021/08/22 07:50:27;;;;;;;;;;;;;;;;;;4948895;28;19940;-88
2021/08/22 07:52:54;;;;;;;;;;;;;;;;;;4934823;28;19922;-85
2021/08/22 07:55:21;;;;;;;;;;;;;;;;;;4927495;28;20499;-84
2021/08/22 07:57:48;;;;;;;;;;;;;;;;;;4912124;28;21312;-88
2021/08/22 08:00:19;;;;;;;;;;;;;;;;;;4921761;28;19989;-88
2021/08/22 08:02:45;;;;;;;;;;;;;;;;;;4920026;28;19922;-91
2021/08/22 08:05:13;;;;;;;;;;;;;;;;;;4929463;28;19923;-89
2021/08/22 08:07:39;;;;;;;;;;;;;;;;;;4913813;28;20433;-87
2021/08/22 08:10:06;;;;;;;;;;;;;;;;;;4934808;28;19992;-88
2021/08/22 08:12:33;;;;;;;;;;;;;;;;;;4935077;28;19932;-88
2021/08/22 08:15:02;;;;;;;;;;;;;;;;;;4948357;28;19925;-90
2021/08/22 08:17:28;;;;;;;;;;;;;;;;;;4942109;28;20001;-90
2021/08/22 08:19:54;;;;;;;;;;;;;;;;;;4960749;28;19919;-91
2021/08/22 08:22:23;;;;;;;;;;;;;;;;;;4933993;28;19987;-89
2021/08/22 08:24:49;;;;;;;;;;;;;;;;;;4937899;28;20234;-91
2021/08/22 08:27:15;;;;;;;;;;;;;;;;;;4922744;28;19922;-88
2021/08/22 08:29:41;;;;;;;;;;;;;;;;;;4933926;28;19941;-85
2021/08/22 08:32:08;;;;;;;;;;;;;;;;;;4928892;28;20089;-86
2021/08/22 08:34:34;;;;;;;;;;;;;;;;;;4936758;28;20000;-87
2021/08/22 08:37:01;;;;;;;;;;;;;;;;;;4936174;28;19919;-88
2021/08/22 08:39:28;;;;;;;;;;;;;;;;;;4930699;28;19918;-85
2021/08/22 08:41:54;;;;;;;;;;;;;;;;;;4930541;28;20043;-89
2021/08/22 08:44:20;;;;;;;;;;;;;;;;;;4936625;28;20366;-88
2021/08/22 08:46:47;;;;;;;;;;;;;;;;;;4933086;28;22033;-88
2021/08/22 08:49:14;;;;;;;;;;;;;;;;;;4951459;28;19918;-89
2021/08/22 08:51:40;;;;;;;;;;;;;;;;;;4944576;28;19926;-90
2021/08/22 08:54:06;;;;;;;;;;;;;;;;;;4934349;28;19918;-86
2021/08/22 08:56:32;;;;;;;;;;;;;;;;;;4945010;28;19952;-96
2021/08/22 08:58:59;;;;;;;;;;;;;;;;;;4981873;28;20017;-92
2021/08/22 09:01:26;;;;;;;;;;;;;;;;;;4949705;28;19925;-88
2021/08/22 09:03:53;;;;;;;;;;;;;;;;;;4949960;28;19926;-86
2021/08/22 09:06:23;;;;;;;;;;;;;;;;;;4967899;28;19922;-90
2021/08/22 09:08:51;;;;;;;;;;;;;;;;;;4963693;28;19914;-89
2021/08/22 09:11:17;;;;;;;;;;;;;;;;;;4941333;28;19941;-89
2021/08/22 09:13:43;;;;;;;;;;;;;;;;;;4936138;28;19918;-90
2021/08/22 09:16:09;;;;;;;;;;;;;;;;;;4936794;28;19918;-86
2021/08/22 09:18:35;;;;;;;;;;;;;;;;;;4954745;28;19980;-86
2021/08/22 09:21:02;;;;;;;;;;;;;;;;;;4941119;28;19949;-83
2021/08/22 09:23:28;;;;;;;;;;;;;;;;;;4937327;28;19937;-85
2021/08/22 09:25:54;;;;;;;;;;;;;;;;;;4944281;28;19922;-84
2021/08/22 09:28:20;;;;;;;;;;;;;;;;;;4945382;28;19918;-85
2021/08/22 09:30:46;;;;;;;;;;;;;;;;;;4944845;28;19922;-84
2021/08/22 09:33:12;;;;;;;;;;;;;;;;;;4926803;28;20070;-89
2021/08/22 09:35:42;;;;;;;;;;;;;;;;;;4928915;28;19918;-89
2021/08/22 09:38:08;;;;;;;;;;;;;;;;;;4936809;28;20161;-84
2021/08/22 09:40:35;;;;;;;;;;;;;;;;;;4929858;28;19922;-83
2021/08/22 09:43:02;;;;;;;;;;;;;;;;;;4965326;28;19965;-84
2021/08/22 09:45:30;;;;;;;;;;;;;;;;;;4944845;28;19929;-85
2021/08/22 09:47:56;;;;;;;;;;;;;;;;;;4939252;28;19926;-87
2021/08/22 09:50:23;;;;;;;;;;;;;;;;;;4935649;28;19922;-85
2021/08/22 09:52:55;;;;;;;;;;;;;;;;;;4959705;28;20061;-92
2021/08/22 09:55:21;;;;;;;;;;;;;;;;;;4961640;28;19915;-92
2021/08/22 09:57:47;;;;;;;;;;;;;;;;;;4942021;28;21241;-92
2021/08/22 10:00:13;;;;;;;;;;;;;;;;;;4947216;28;19918;-91
2021/08/22 10:02:39;;;;;;;;;;;;;;;;;;4950075;28;19925;-91
2021/08/22 10:05:05;;;;;;;;;;;;;;;;;;4965789;28;19964;-90
2021/08/22 10:07:31;;;;;;;;;;;;;;;;;;4955049;28;19925;-91
2021/08/22 10:09:59;;;;;;;;;;;;;;;;;;4952311;28;19918;-93
2021/08/22 10:12:27;;;;;;;;;;;;;;;;;;4970488;28;19918;-91
2021/08/22 10:14:58;;;;;;;;;;;;;;;;;;4956539;28;19914;-93
2021/08/22 10:17:26;;;;;;;;;;;;;;;;;;4964829;28;20393;-93
2021/08/22 10:19:52;;;;;;;;;;;;;;;;;;4967126;28;19918;-91
2021/08/22 10:22:18;;;;;;;;;;;;;;;;;;4965174;28;19979;-94
2021/08/22 10:24:46;;;;;;;;;;;;;;;;;;4977587;28;19957;-94
2021/08/22 10:27:17;;;;;;;;;;;;;;;;;;4974073;28;19910;-94
2021/08/22 10:29:45;;;;;;;;;;;;;;;;;;4971280;28;19907;-93
2021/08/22 10:32:13;;;;;;;;;;;;;;;;;;4970658;28;19978;-91
2021/08/22 10:34:39;;;;;;;;;;;;;;;;;;4953967;28;19969;-91
2021/08/22 10:37:08;;;;;;;;;;;;;;;;;;4963855;28;19922;-96
2021/08/22 10:39:34;;;;;;;;;;;;;;;;;;4948399;28;19922;-87
2021/08/22 10:42:00;;;;;;;;;;;;;;;;;;4935573;28;19925;-84
2021/08/22 10:44:28;;;;;;;;;;;;;;;;;;4942506;28;19925;-82
2021/08/22 10:46:54;;;;;;;;;;;;;;;;;;4946856;28;19981;-82
2021/08/22 10:49:20;;;;;;;;;;;;;;;;;;4929201;28;20461;-80
2021/08/22 10:51:46;;;;;;;;;;;;;;;;;;4923146;28;19922;-80
2021/08/22 10:54:15;;;;;;;;;;;;;;;;;;4929192;28;19941;-80
2021/08/22 10:56:41;;;;;;;;;;;;;;;;;;4940263;28;19956;-83
2021/08/22 10:59:10;;;;;;;;;;;;;;;;;;4927707;28;19969;-83
2021/08/22 11:01:37;;;;;;;;;;;;;;;;;;4941371;28;19969;-82
2021/08/22 11:04:03;;;;;;;;;;;;;;;;;;4961241;28;20365;-85
2021/08/22 11:06:30;;;;;;;;;;;;;;;;;;4929611;28;19918;-85
2021/08/22 11:09:02;;;;;;;;;;;;;;;;;;4943633;28;20057;-84
2021/08/22 11:11:28;;;;;;;;;;;;;;;;;;4945353;28;20329;-84
2021/08/22 11:13:54;;;;;;;;;;;;;;;;;;4939794;28;20037;-80
2021/08/22 11:16:20;;;;;;;;;;;;;;;;;;4946350;28;19929;-83
2021/08/22 11:18:46;;;;;;;;;;;;;;;;;;4939218;28;19921;-81
2021/08/22 11:21:12;;;;;;;;;;;;;;;;;;4942934;28;19922;-80
2021/08/22 11:23:39;;;;;;;;;;;;;;;;;;4942308;28;19922;-83
2021/08/22 11:26:05;;;;;;;;;;;;;;;;;;4940862;28;19918;-86
2021/08/22 11:28:32;;;;;;;;;;;;;;;;;;4928186;28;20083;-84
2021/08/22 11:30:58;;;;;;;;;;;;;;;;;;4953810;28;20362;-90
2021/08/22 11:33:24;;;;;;;;;;;;;;;;;;4973867;28;19922;-88
2021/08/22 11:35:52;;;;;;;;;;;;;;;;;;4946005;28;19961;-86
2021/08/22 11:38:18;;;;;;;;;;;;;;;;;;4943346;28;20342;-88
2021/08/22 11:40:44;;;;;;;;;;;;;;;;;;4938651;28;20563;-87
2021/08/22 11:43:10;;;;;;;;;;;;;;;;;;4955104;28;20610;-88
2021/08/22 11:45:39;;;;;;;;;;;;;;;;;;4943869;28;19938;-84
2021/08/22 11:48:05;;;;;;;;;;;;;;;;;;4903029;28;20123;-83
2021/08/22 11:50:31;;;;;;;;;;;;;;;;;;4902548;28;19919;-83
2021/08/22 11:52:57;;;;;;;;;;;;;;;;;;4907389;28;19923;-84
2021/08/22 11:55:23;;;;;;;;;;;;;;;;;;4869092;29;19919;-85
2021/08/22 11:58:21;;;;;;;6.50;2.20;;;;;;;;;;4754420;28;3631957;-85
2021/08/22 12:00:51;;;;;;;6.90;2.30;;;;;;;;;;4938123;28;20049;-88
2021/08/22 12:03:23;;;;;;;7.22;2.50;;;;;;;;;;4932242;28;20045;-88
2021/08/22 12:05:56;;;;;;;8.25;2.60;;;;;;;;;;4967729;28;20130;-83
2021/08/22 12:08:24;;;;;;;6.47;2.30;;;;;;;;;;4990321;28;20053;-84
2021/08/22 12:10:52;;;;;;;6.38;2.08;;;;;;;;;;5011555;28;20030;-84
2021/08/22 12:13:19;;;;;;;9.60;2.40;;;;;;;;;;5012598;28;20507;-84
2021/08/22 12:15:47;;;;;;;5.80;2.28;;;;;;;;;;4991212;28;20250;-81
2021/08/22 12:18:13;;;;;;;7.90;2.40;;;;;;;;;;4993608;28;20037;-82
2021/08/22 12:20:41;;;;;;;8.05;2.40;;;;;;;;;;4990799;28;20137;-81
2021/08/22 12:23:12;;;;;;;6.72;2.22;;;;;;;;;;4992503;28;20042;-81
2021/08/22 12:25:40;;;;;;;7.20;2.15;;;;;;;;;;4989003;28;20034;-80
2021/08/22 12:28:20;;;;;;;9.10;2.50;;;;;;;;;;4999955;28;20094;-81
2021/08/22 12:30:49;;;;;;;7.68;2.60;;;;;;;;;;4991175;28;20028;-81
2021/08/22 12:33:32;;;;;;;7.43;2.45;;;;;;;;;;4984719;28;20069;-81
2021/08/22 12:36:17;;;;;;;6.47;2.30;;;;;;;;;;4980729;28;20121;-84
2021/08/22 12:38:45;;;;;;;8.43;2.58;;;;;;;;;;4983003;28;20042;-82
2021/08/22 12:41:26;;;;;;;7.70;2.35;;;;;;;;;;4978290;28;20084;-79
2021/08/22 12:43:55;;;;;;;7.95;2.85;;;;;;;;;;4984357;28;20085;-88
2021/08/22 12:46:22;;;;;;;8.52;2.53;;;;;;;;;;4978982;28;20067;-82
2021/08/22 12:48:50;;;;;;;7.85;2.75;;;;;;;;;;4974573;28;21019;-80
2021/08/22 12:51:16;;;;;;;14.18;6.55;;;;;;;;;;4977279;28;20026;-85
2021/08/22 12:53:42;;;;;;;12.38;4.60;;;;;;;;;;4980572;28;20033;-84
2021/08/22 12:56:09;;;;;;;10.05;3.10;;;;;;;;;;4982466;28;20548;-85
2021/08/22 12:58:35;;;;;;;9.25;3.10;;;;;;;;;;4993657;28;20032;-83
2021/08/22 13:01:02;;;;;;;7.78;2.45;;;;;;;;;;4996229;28;20018;-86
2021/08/22 13:03:29;;;;;;;8.90;4.35;;;;;;;;;;5016503;28;20045;-86
2021/08/22 13:05:55;;;;;;;9.73;3.60;;;;;;;;;;5007301;28;20037;-86
2021/08/22 13:08:23;;;;;;;7.63;2.60;;;;;;;;;;4992952;28;20030;-84
2021/08/22 13:10:51;;;;;;;7.97;2.58;;;;;;;;;;4978105;28;20030;-85
2021/08/22 13:13:18;;;;;;;10.05;3.25;;;;;;;;;;4984328;28;20053;-86
2021/08/22 13:15:44;;;;;;;7.95;2.47;;;;;;;;;;4981784;28;20037;-85
2021/08/22 13:18:11;;;;;;;9.52;3.30;;;;;;;;;;4981987;28;20034;-84
2021/08/22 13:20:37;;;;;;;8.23;2.50;;;;;;;;;;4995420;28;20045;-86
2021/08/22 13:23:03;;;;;;;9.10;2.45;;;;;;;;;;4965248;28;20053;-84
2021/08/22 13:25:31;;;;;;;7.05;2.40;;;;;;;;;;4963636;28;20866;-84
2021/08/22 13:27:57;;;;;;;6.70;2.38;;;;;;;;;;4966465;28;20179;-86
2021/08/22 13:30:24;;;;;;;7.97;2.80;;;;;;;;;;4967884;28;20205;-84
2021/08/22 13:32:53;;;;;;;7.30;2.70;;;;;;;;;;4981274;28;20033;-85
2021/08/22 13:35:22;;;;;;;6.65;2.50;;;;;;;;;;4987620;28;20121;-85
2021/08/22 13:37:48;;;;;;;6.82;2.33;;;;;;;;;;4965733;28;21001;-84
2021/08/22 13:40:15;;;;;;;6.70;2.30;;;;;;;;;;4983400;28;20037;-83
2021/08/22 13:42:41;;;;;;;5.90;2.20;;;;;;;;;;4991482;28;20564;-84
2021/08/22 13:45:09;;;;;;;6.97;2.20;;;;;;;;;;4968588;28;20501;-84
2021/08/22 13:47:37;;;;;;;8.75;2.30;;;;;;;;;;4975187;28;20133;-84
2021/08/22 13:50:03;;;;;;;7.47;2.55;;;;;;;;;;4965808;28;20696;-83
2021/08/22 13:52:32;;;;;;;7.47;2.30;;;;;;;;;;4973236;28;20033;-86
2021/08/22 13:54:58;;;;;;;7.50;2.83;;;;;;;;;;4963054;28;20082;-85
2021/08/22 13:57:27;;;;;;;7.20;2.30;;;;;;;;;;4988552;28;20042;-88
2021/08/22 13:59:56;;;;;;;6.65;2.20;;;;;;;;;;5002702;28;20037;-88
2021/08/22 14:02:40;;;;;;;7.82;2.67;;;;;;;;;;4993111;28;20018;-91
2021/08/22 14:05:09;;;;;;;7.05;2.50;;;;;;;;;;4984511;28;20040;-81
2021/08/22 14:07:35;;;;;;;6.55;2.42;;;;;;;;;;4981361;28;20142;-79
2021/08/22 14:10:01;;;;;;;7.53;2.80;;;;;;;;;;4985863;28;20029;-84
2021/08/22 14:12:29;;;;;;;8.90;2.38;;;;;;;;;;4982802;28;20049;-83
2021/08/22 14:14:57;;;;;;;6.63;2.42;;;;;;;;;;4979630;28;20041;-80
2021/08/22 14:17:23;;;;;;;6.30;2.35;;;;;;;;;;4985314;28;20026;-83
2021/08/22 14:19:52;;;;;;;5.70;2.10;;;;;;;;;;4984925;28;20083;-84
2021/08/22 14:22:19;;;;;;;6.45;2.13;;;;;;;;;;4989072;28;20022;-85
2021/08/22 14:24:45;;;;;;;6.60;2.33;;;;;;;;;;5007306;28;20038;-85
2021/08/22 14:27:13;;;;;;;6.07;2.60;;;;;;;;;;5010565;28;20064;-87
2021/08/22 14:29:42;;;;;;;5.68;2.15;;;;;;;;;;4987659;28;20029;-83
2021/08/22 14:32:08;;;;;;;7.32;2.33;;;;;;;;;;4986232;28;20037;-80
2021/08/22 14:34:35;;;;;;;6.68;2.35;;;;;;;;;;4985561;28;20033;-82
2021/08/22 14:37:01;;;;;;;9.18;2.60;;;;;;;;;;5006285;28;20053;-84
2021/08/22 14:39:28;;;;;;;6.43;2.50;;;;;;;;;;4984977;28;20030;-83
2021/08/22 14:41:54;;;;;;;7.90;2.20;;;;;;;;;;5002738;28;20035;-81
2021/08/22 14:44:21;;;;;;;6.57;2.45;;;;;;;;;;4981334;28;20530;-79
2021/08/22 14:46:48;;;;;;;6.75;2.20;;;;;;;;;;4982706;28;20384;-84
2021/08/22 14:49:14;;;;;;;7.28;2.30;;;;;;;;;;4992154;28;20537;-85
2021/08/22 14:51:41;;;;;;;5.93;2.00;;;;;;;;;;5004840;28;20030;-85
2021/08/22 14:54:07;;;;;;;7.80;2.72;;;;;;;;;;5028609;28;20029;-86
2021/08/22 14:56:34;;;;;;;7.88;2.60;;;;;;;;;;5010342;28;20666;-87
2021/08/22 14:59:00;;;;;;;6.13;2.40;;;;;;;;;;4996414;28;20021;-85
2021/08/22 15:01:28;;;;;;;7.82;2.28;;;;;;;;;;5004251;28;20018;-88
2021/08/22 15:03:56;;;;;;;6.88;2.22;;;;;;;;;;5005051;28;20018;-85
2021/08/22 15:06:22;;;;;;;7.18;2.42;;;;;;;;;;5018291;28;20056;-87
2021/08/22 15:08:49;;;;;;;6.25;2.08;;;;;;;;;;4993192;28;20041;-83
2021/08/22 15:11:15;;;;;;;8.35;2.13;;;;;;;;;;4990634;28;20026;-85
2021/08/22 15:13:42;;;;;;;7.47;2.80;;;;;;;;;;5012291;22;20107;-83
2021/08/22 15:16:10;;;;;;;6.60;2.10;;;;;;;;;;4996494;28;20079;-83
2021/08/22 15:18:38;;;;;;;7.50;2.40;;;;;;;;;;4994991;28;20029;-86
2021/08/22 15:21:08;;;;;;;7.47;2.20;;;;;;;;;;5000632;28;20103;-82
2021/08/22 15:23:35;;;;;;;6.13;2.20;;;;;;;;;;4993239;28;20087;-85
2021/08/22 15:26:02;;;;;;;8.40;2.58;;;;;;;;;;5002358;28;20417;-86
2021/08/22 15:28:28;;;;;;;7.20;2.38;;;;;;;;;;4998436;28;20036;-85
2021/08/22 15:30:55;;;;;;;8.65;2.60;;;;;;;;;;5002354;28;20031;-86
2021/08/22 15:33:21;;;;;;;8.63;2.10;;;;;;;;;;4997082;28;20116;-86
2021/08/22 15:35:47;;;;;;;7.18;2.45;;;;;;;;;;4988506;28;20147;-83
2021/08/22 15:38:16;;;;;;;7.22;2.40;;;;;;;;;;4997129;28;20026;-81
2021/08/22 15:40:43;;;;;;;6.00;2.00;;;;;;;;;;4992575;28;20064;-82
2021/08/22 15:43:10;;;;;;;6.65;2.42;;;;;;;;;;4995210;28;20026;-83
2021/08/22 15:45:37;;;;;;;6.28;2.53;;;;;;;;;;5005388;28;20030;-84
2021/08/22 15:48:09;;;;;;;8.88;2.58;;;;;;;;;;4998188;28;20676;-86
2021/08/22 15:50:41;;;;;;;6.05;2.10;;;;;;;;;;5011526;28;20041;-84
2021/08/22 15:53:11;;;;;;;7.25;2.63;;;;;;;;;;4990561;28;20041;-84
2021/08/22 15:55:40;;;;;;;7.53;2.13;;;;;;;;;;4988337;28;20030;-84
2021/08/22 15:58:06;;;;;;;9.60;2.60;;;;;;;;;;4999060;28;20033;-85
2021/08/22 16:00:36;;;;;;;8.15;2.45;;;;;;;;;;4991610;28;20025;-84
2021/08/22 16:03:02;;;;;;;6.47;2.28;;;;;;;;;;4997405;28;20483;-84
2021/08/22 16:05:33;;;;;;;8.98;2.80;;;;;;;;;;5014894;28;20032;-82
2021/08/22 16:08:09;;;;;;;6.03;2.20;;;;;;;;;;5001678;28;20044;-84